Portada
METAR-TAF:

METAR-TAF

Aeroports :

Toussus-le-Noble, França

latitud: 48-46N, longitud: 002-06E, altitud: 164 m

Observació

L'informe es va fer fa 28 minuts, a les 07:00 UTC
Vent calma
Temperatura 14°C
Humitat 67%
Pressió 1023 hPa
Visibilitat 10 km o més
sense núvols per sota de 1500 mi sense presència de cumulonimbus.

METAR: LFPN 090700Z AUTO 00000KT CAVOK 14/08 Q1023

Hora: 09:28 (07:28 UTC)


TAF: manca

Observacions i pronòstics meteorològics de més de 4000 aeroports (METAR i TAF).

Les estacions disponibles són els punts grocs i vermells al mapa.

Posi el ratolí al punt desitjat per veure el nom de l'estació.

Feu clic per veure les observacions i els pronòstics meteorològics.

Per canviar el mapa: feu clic els botons verds amb una creu de color negre per apropar; al botó verd amb un guió per allunyar la imatge; o en les fletxes verdes per a mapes adjacents.


METAR-TAF: